Megargel, Texas
Current Conditions -  °F | °C
As of 10:50 AM on Thursday 30 Oct 2014 (Local Time) from KRPH Reporting Station
Scattered Clouds Scattered Clouds  
Wind Chill: 67°   Ceiling: Unl
Heat Index: 67°   Visibility: 10mi
Dew Point: 56°   Wind: 6mph
Humidity: 67%   Direction: 140°SE
Pressure: 30.14"   Gusts: NA
Location:  33.45°N, 98.92°W
Report Text: KRPH 301550Z AUTO 14005KT 10SM SCT035 SCT046 SCT060 20/13 A3014 RMK AO2 T01960133
Loading
Personal Weather Stations






























Interactive Weather Map
Tropical Storm Tracking
New forecast layout! Learn more

10-Day Weather Forecast

Advertisements
Track Severe Weather on mobile